Time;durP1;ratioP1;P1;durP2;ratioP2;P2;SDS_P1;SDS_P2;PMS_P1;PMS_P2;Temp;Humidity;BMP_temperature;BMP_pressure;BME280_temperature;BME280_humidity;BME280_pressure;Samples;Min_cycle;Max_cycle;Signal;HPM_P1;HPM_P2
2021/11/16 00:00:15;23810.00;0.08;41.87;0.00;0.00;0.62;;;;;13.30;1.00;;;;;;2264768;61;1264;-84
2021/11/16 00:02:44;170631.00;0.57;295.35;0.00;0.00;0.62;;;;;13.40;1.00;;;;;;2264891;61;935;-84
2021/11/16 00:05:11;224941.00;0.75;388.85;0.00;0.00;0.62;;;;;13.20;1.00;;;;;;2264846;61;1005;-84
2021/11/16 00:07:39;125240.00;0.42;217.12;0.00;0.00;0.62;;;;;12.90;1.00;;;;;;2256691;61;1087;-81
2021/11/16 00:10:08;272035.00;0.91;469.84;0.00;0.00;0.62;;;;;12.90;1.00;;;;;;2256781;61;1336;-84
2021/11/16 00:12:35;85371.00;0.28;148.31;0.00;0.00;0.62;;;;;12.90;1.00;;;;;;2253340;61;1924;-83
2021/11/16 00:15:02;282877.00;0.94;488.48;0.00;0.00;0.62;;;;;12.70;1.00;;;;;;2246891;61;1217;-84
2021/11/16 00:17:29;49114.00;0.16;85.65;0.00;0.00;0.62;;;;;12.60;1.00;;;;;;2257726;61;959;-82
2021/11/16 00:19:58;202387.00;0.67;350.03;0.00;0.00;0.62;;;;;12.70;1.00;;;;;;2258128;61;1477;-81
2021/11/16 00:22:24;100473.00;0.33;174.39;0.00;0.00;0.62;;;;;12.80;1.00;;;;;;2261238;61;971;-82
2021/11/16 00:27:19;117930.00;0.39;204.51;0.00;0.00;0.62;;;;;12.80;1.00;;;;;;2270786;61;1436;-85
2021/11/16 00:29:46;158393.00;0.53;274.27;0.00;0.00;0.62;;;;;12.40;1.00;;;;;;2269163;61;1337;-84
2021/11/16 00:32:13;164888.00;0.55;285.46;0.00;0.00;0.62;;;;;12.40;1.00;;;;;;2269162;61;1924;-85
2021/11/16 00:34:40;138115.00;0.46;239.32;0.00;0.00;0.62;;;;;12.70;1.00;;;;;;2265499;61;1009;-84
2021/11/16 00:37:08;183124.00;0.61;316.87;0.00;0.00;0.62;;;;;12.90;1.00;;;;;;2265389;61;1048;-84
2021/11/16 00:39:35;118224.00;0.39;205.02;0.00;0.00;0.62;;;;;12.90;1.00;;;;;;2265464;61;1444;-84
2021/11/16 00:42:02;100918.00;0.34;175.16;0.00;0.00;0.62;;;;;13.00;1.00;;;;;;2265502;61;1013;-85
2021/11/16 00:44:30;65459.00;0.22;113.91;0.00;0.00;0.62;;;;;13.00;1.00;;;;;;2269209;61;911;-84
2021/11/16 00:46:57;158172.00;0.53;273.89;0.00;0.00;0.62;;;;;13.20;1.00;;;;;;2269139;61;1010;-85
2021/11/16 00:49:23;1776.00;0.01;3.70;0.00;0.00;0.62;;;;;12.90;1.00;;;;;;2265391;61;1337;-84
2021/11/16 00:51:52;134867.00;0.45;233.72;0.00;0.00;0.62;;;;;12.90;1.00;;;;;;2269165;61;1980;-82
2021/11/16 00:54:20;263173.00;0.88;454.60;1845.00;0.01;3.82;;;;;13.00;1.00;;;;;;2269186;61;909;-83
2021/11/16 00:56:47;339737.00;1.13;586.22;0.00;0.00;0.62;;;;;13.30;1.00;;;;;;2268988;61;910;-81
2021/11/16 00:59:14;117862.00;0.39;204.39;0.00;0.00;0.62;;;;;13.20;1.00;;;;;;2269125;61;1394;-83
2021/11/16 01:01:41;156624.00;0.52;271.22;0.00;0.00;0.62;;;;;12.60;1.00;;;;;;2265359;61;1028;-82
2021/11/16 01:04:08;91453.00;0.30;158.82;0.00;0.00;0.62;;;;;12.30;1.00;;;;;;2264670;61;1059;-81
2021/11/16 01:06:35;286851.00;0.96;495.32;11936.00;0.04;21.30;;;;;12.60;1.00;;;;;;2254822;61;959;-80
2021/11/16 01:09:02;322969.00;1.08;557.40;0.00;0.00;0.62;;;;;12.80;1.00;;;;;;2264637;61;1417;-84
2021/11/16 01:11:30;26633.00;0.09;46.75;0.00;0.00;0.62;;;;;12.60;1.00;;;;;;2254734;61;1994;-83
2021/11/16 01:13:57;56738.00;0.19;98.84;0.00;0.00;0.62;;;;;12.80;1.00;;;;;;2258051;61;1028;-83
2021/11/16 01:16:24;103471.00;0.34;179.56;0.00;0.00;0.62;;;;;12.90;1.00;;;;;;2255938;61;993;-84
2021/11/16 01:18:51;55828.00;0.19;97.26;0.00;0.00;0.62;;;;;12.90;1.00;;;;;;2256718;61;1409;-84
2021/11/16 01:21:18;288537.00;0.96;498.21;14427.00;0.05;25.62;;;;;13.00;1.00;;;;;;2250949;61;968;-84
2021/11/16 01:23:46;23160.00;0.08;40.74;0.00;0.00;0.62;;;;;13.10;1.00;;;;;;2254653;61;990;-84
2021/11/16 01:26:13;188525.00;0.63;326.17;0.00;0.00;0.62;;;;;13.30;1.00;;;;;;2260301;61;1000;-81
2021/11/16 01:28:42;200675.00;0.67;347.09;0.00;0.00;0.62;;;;;13.20;1.00;;;;;;2260443;61;1318;-83
2021/11/16 01:31:09;137924.00;0.46;238.99;0.00;0.00;0.62;;;;;13.20;1.00;;;;;;2260322;61;1285;-83
2021/11/16 01:33:44;108719.00;0.36;188.62;0.00;0.00;0.62;;;;;12.90;1.00;;;;;;2261497;61;2019;-83
2021/11/16 01:36:12;200988.00;0.67;347.62;19249.00;0.06;33.97;;;;;12.70;1.00;;;;;;2258560;61;1002;-82
2021/11/16 01:38:40;187087.00;0.62;323.69;0.00;0.00;0.62;;;;;12.70;1.00;;;;;;2268462;61;1424;-82
2021/11/16 01:41:07;161301.00;0.54;279.28;0.00;0.00;0.62;;;;;13.00;1.00;;;;;;2258582;61;1012;-83
2021/11/16 01:43:34;106775.00;0.36;185.26;0.00;0.00;0.62;;;;;12.80;1.00;;;;;;2268358;61;1711;-83
2021/11/16 01:46:05;112472.00;0.37;195.10;0.00;0.00;0.62;;;;;12.90;1.00;;;;;;2260448;61;988;-83
2021/11/16 01:48:33;167349.00;0.56;289.70;0.00;0.00;0.62;;;;;12.60;1.00;;;;;;2251764;61;955;-82
2021/11/16 01:51:01;129140.00;0.43;223.85;0.00;0.00;0.62;;;;;12.70;1.00;;;;;;2252607;61;1384;-83
2021/11/16 01:53:28;324325.00;1.08;559.73;0.00;0.00;0.62;;;;;12.70;1.00;;;;;;2252521;61;2009;-85
2021/11/16 02:01:01;122842.00;0.41;212.98;0.00;0.00;0.62;;;;;12.90;1.00;;;;;;2270494;61;1409;-84
2021/11/16 02:03:29;183377.00;0.61;317.30;0.00;0.00;0.62;;;;;12.80;1.00;;;;;;2265170;61;940;-84
2021/11/16 02:05:58;112773.00;0.38;195.61;0.00;0.00;0.62;;;;;12.90;1.00;;;;;;2268983;61;1028;-83
2021/11/16 02:08:26;166835.00;0.56;288.81;0.00;0.00;0.62;;;;;12.90;1.00;;;;;;2264840;61;954;-85
2021/11/16 02:10:55;100520.00;0.34;174.47;0.00;0.00;0.62;;;;;12.70;1.00;;;;;;2265115;61;1370;-82
2021/11/16 02:13:22;229384.00;0.76;396.49;28074.00;0.09;49.25;;;;;12.80;1.00;;;;;;2263902;61;1990;-82
2021/11/16 02:15:49;13821.00;0.05;24.57;0.00;0.00;0.62;;;;;13.10;1.00;;;;;;2256013;61;1045;-84
2021/11/16 02:18:17;56827.00;0.19;98.99;0.00;0.00;0.62;;;;;13.00;1.00;;;;;;2252273;61;1004;-84
2021/11/16 02:20:47;305565.00;1.02;527.49;0.00;0.00;0.62;;;;;12.70;1.00;;;;;;2251882;61;1304;-83
2021/11/16 02:23:14;44871.00;0.15;78.32;0.00;0.00;0.62;;;;;12.90;1.00;;;;;;2252477;61;1279;-82
2021/11/16 02:25:44;84804.00;0.28;147.33;0.00;0.00;0.62;;;;;13.00;1.00;;;;;;2245782;61;986;-84
2021/11/16 02:28:11;101451.00;0.34;176.08;0.00;0.00;0.62;;;;;13.30;1.00;;;;;;2252344;61;1046;-83
2021/11/16 02:30:38;74186.00;0.25;128.99;0.00;0.00;0.62;;;;;12.80;1.00;;;;;;2247019;61;1512;-81
2021/11/16 02:33:05;112853.00;0.38;195.75;0.00;0.00;0.62;;;;;13.00;1.00;;;;;;2261034;61;1920;-84
2021/11/16 02:35:32;171836.00;0.57;297.43;0.00;0.00;0.62;;;;;13.20;1.00;;;;;;2264966;61;1040;-84
2021/11/16 02:38:01;246300.00;0.82;425.59;0.00;0.00;0.62;;;;;13.10;1.00;;;;;;2268821;61;1049;-84
2021/11/16 02:40:28;128927.00;0.43;223.48;0.00;0.00;0.62;;;;;12.90;1.00;;;;;;2265133;61;1365;-81
2021/11/16 02:42:56;33221.00;0.11;58.16;0.00;0.00;0.62;;;;;12.70;1.00;;;;;;2265088;61;1029;-84
2021/11/16 02:45:23;29729.00;0.10;52.11;0.00;0.00;0.62;;;;;12.80;1.00;;;;;;2268753;61;990;-84
2021/11/16 02:47:51;294009.00;0.98;507.62;0.00;0.00;0.62;;;;;12.90;1.00;;;;;;2268805;61;1036;-81
2021/11/16 02:50:19;82952.00;0.28;144.14;0.00;0.00;0.62;;;;;12.90;1.00;;;;;;2268748;61;1297;-84
2021/11/16 02:52:46;187765.00;0.63;324.86;0.00;0.00;0.62;;;;;12.50;1.00;;;;;;2265018;61;2002;-84
2021/11/16 02:55:16;67656.00;0.23;117.71;0.00;0.00;0.62;;;;;12.50;1.00;;;;;;2265113;61;989;-82
2021/11/16 02:57:43;128591.00;0.43;222.90;0.00;0.00;0.62;;;;;12.40;1.00;;;;;;2261760;61;972;-83
2021/11/16 03:00:14;117826296.00;392.75;66261236.00;0.00;0.00;0.62;;;;;12.50;1.00;;;;;;2264925;61;1278;-84
2021/11/16 03:02:43;169026.00;0.56;292.59;0.00;0.00;0.62;;;;;12.30;1.00;;;;;;2268296;61;971;-84
2021/11/16 03:05:10;154893.00;0.52;268.24;0.00;0.00;0.62;;;;;12.40;1.00;;;;;;2268118;61;1024;-82
2021/11/16 03:07:44;123334.00;0.41;213.83;0.00;0.00;0.62;;;;;12.50;1.00;;;;;;2261766;61;1001;-84
2021/11/16 03:10:11;128987.00;0.43;223.58;0.00;0.00;0.62;;;;;12.20;1.00;;;;;;2268691;61;1423;-83
2021/11/16 03:12:40;18068.00;0.06;31.92;0.00;0.00;0.62;;;;;12.00;1.00;;;;;;2268253;61;1998;-80
2021/11/16 03:15:08;121154.00;0.40;210.07;0.00;0.00;0.62;;;;;12.00;1.00;;;;;;2261619;61;924;-84
2021/11/16 03:17:35;116461.00;0.39;201.98;0.00;0.00;0.62;;;;;11.90;1.00;;;;;;2265034;61;982;-83
2021/11/16 03:20:02;193111.00;0.64;334.06;0.00;0.00;0.62;;;;;11.70;1.00;;;;;;2260161;61;1312;-83
2021/11/16 03:22:42;197706.00;0.66;341.97;0.00;0.00;0.62;;;;;11.90;1.00;;;;;;2253837;61;1033;-82
2021/11/16 03:25:09;33599.00;0.11;58.81;0.00;0.00;0.62;;;;;11.90;1.00;;;;;;2253630;61;1014;-81
2021/11/16 03:27:39;88170.00;0.29;153.15;0.00;0.00;0.62;;;;;12.60;1.00;;;;;;2260328;61;1083;-82
2021/11/16 03:30:08;91539.00;0.31;158.97;0.00;0.00;0.62;;;;;12.70;1.00;;;;;;2253645;61;1441;-84
2021/11/16 03:32:36;37310.00;0.12;65.23;0.00;0.00;0.62;;;;;12.70;1.00;;;;;;2253605;61;1994;-82
2021/11/16 03:35:06;75605.00;0.25;131.44;0.00;0.00;0.62;;;;;12.80;1.00;;;;;;2251727;61;1020;-84
2021/11/16 03:37:39;71232.00;0.24;123.89;0.00;0.00;0.62;;;;;12.60;1.00;;;;;;2255465;61;1054;-86
2021/11/16 03:40:08;116182.00;0.39;201.50;0.00;0.00;0.62;;;;;12.60;1.00;;;;;;2257365;61;1342;-84
2021/11/16 03:42:39;89211.00;0.30;154.95;0.00;0.00;0.62;;;;;12.50;1.00;;;;;;2257284;61;974;-83
2021/11/16 03:45:09;207043.00;0.69;358.05;0.00;0.00;0.62;;;;;12.30;1.00;;;;;;2255904;61;1052;-85
2021/11/16 03:47:37;182987.00;0.61;316.63;0.00;0.00;0.62;;;;;12.50;1.00;;;;;;2255945;61;913;-85
2021/11/16 03:50:05;241580.00;0.81;417.47;14051.00;0.05;24.97;;;;;12.70;1.00;;;;;;2256025;61;1413;-85
2021/11/16 03:52:35;35082.00;0.12;61.38;0.00;0.00;0.62;;;;;12.90;1.00;;;;;;2252024;61;1989;-85
2021/11/16 03:55:03;169229.00;0.56;292.94;0.00;0.00;0.62;;;;;13.00;1.00;;;;;;2252106;61;924;-82
2021/11/16 03:57:29;160980.00;0.54;278.73;0.00;0.00;0.62;;;;;12.90;1.00;;;;;;2245492;61;1207;-83
2021/11/16 03:59:56;185377.00;0.62;320.75;0.00;0.00;0.62;;;;;12.90;1.00;;;;;;2248669;61;1362;-80
2021/11/16 04:02:25;276074.00;0.92;476.79;44660.00;0.15;77.95;;;;;12.70;1.00;;;;;;2246101;61;1099;-84
2021/11/16 04:04:54;19438.00;0.06;34.30;0.00;0.00;0.62;;;;;12.70;1.00;;;;;;2252680;61;980;-85
2021/11/16 04:07:22;211783.00;0.71;366.20;0.00;0.00;0.62;;;;;12.80;1.00;;;;;;2256166;61;1075;-82
2021/11/16 04:09:49;258753.00;0.86;447.00;0.00;0.00;0.62;;;;;12.70;1.00;;;;;;2250806;61;1332;-85
2021/11/16 04:12:16;94071.00;0.31;163.34;0.00;0.00;0.62;;;;;12.60;1.00;;;;;;2254387;61;1916;-84
2021/11/16 04:14:43;211299.00;0.70;365.37;0.00;0.00;0.62;;;;;12.80;1.00;;;;;;2260812;61;990;-84
2021/11/16 04:17:10;64560.00;0.22;112.36;0.00;0.00;0.62;;;;;12.60;1.00;;;;;;2252242;61;1109;-85
2021/11/16 04:19:39;106135.00;0.35;184.16;0.00;0.00;0.62;;;;;12.30;1.00;;;;;;2248959;61;1264;-85
2021/11/16 04:22:06;67977.00;0.23;118.26;0.00;0.00;0.62;;;;;12.40;1.00;;;;;;2253387;61;1012;-81
2021/11/16 04:24:33;159582.00;0.53;276.32;0.00;0.00;0.62;;;;;12.50;1.00;;;;;;2256674;61;1034;-82
2021/11/16 04:27:00;13630.00;0.05;24.24;0.00;0.00;0.62;;;;;12.40;1.00;;;;;;2252084;61;944;-83
2021/11/16 04:29:27;66378.00;0.22;115.50;0.00;0.00;0.62;;;;;12.40;1.00;;;;;;2248712;61;1283;-84
2021/11/16 04:31:57;21455.00;0.07;37.79;0.00;0.00;0.62;;;;;12.80;1.00;;;;;;2249198;61;954;-83
2021/11/16 04:34:24;63426.00;0.21;110.40;0.00;0.00;0.62;;;;;12.90;1.00;;;;;;2253803;61;1988;-83
2021/11/16 04:36:52;47667.00;0.16;83.15;0.00;0.00;0.62;;;;;13.00;1.00;;;;;;2260685;61;1051;-83
2021/11/16 04:39:19;152545.00;0.51;264.19;0.00;0.00;0.62;;;;;12.70;1.00;;;;;;2260279;61;1374;-84
2021/11/16 04:41:46;133198.00;0.44;230.84;0.00;0.00;0.62;;;;;13.00;1.00;;;;;;2257289;61;1049;-84
2021/11/16 04:44:13;81593.00;0.27;141.79;0.00;0.00;0.62;;;;;13.20;1.00;;;;;;2261483;61;930;-83
2021/11/16 04:46:39;80061.00;0.27;139.14;0.00;0.00;0.62;;;;;13.20;1.00;;;;;;2264714;61;1009;-81
2021/11/16 04:49:10;117274.00;0.39;203.38;0.00;0.00;0.62;;;;;12.60;1.00;;;;;;2264730;61;1274;-83
2021/11/16 04:51:47;140886.00;0.47;244.10;0.00;0.00;0.62;;;;;12.40;1.00;;;;;;2258069;61;970;-85
2021/11/16 04:54:33;85765.00;0.29;148.99;0.00;0.00;0.62;;;;;12.10;1.00;;;;;;2261157;61;1993;-84
2021/11/16 04:59:49;108064.00;0.36;187.49;0.00;0.00;0.62;;;;;11.90;1.00;;;;;;2264582;61;1404;-81
2021/11/16 05:02:38;77093.00;0.26;134.02;0.00;0.00;0.62;;;;;12.20;1.00;;;;;;2264706;61;1001;-82
2021/11/16 05:05:09;131707.00;0.44;228.27;0.00;0.00;0.62;;;;;12.30;1.00;;;;;;2270774;61;1002;-83
2021/11/16 05:07:37;59228.00;0.20;103.14;0.00;0.00;0.62;;;;;12.30;1.00;;;;;;2269121;61;919;-84
2021/11/16 05:10:08;61851.00;0.21;107.68;0.00;0.00;0.62;;;;;12.20;1.00;;;;;;2265329;61;1455;-83
2021/11/16 05:12:36;113609.00;0.38;197.06;0.00;0.00;0.62;;;;;12.20;1.00;;;;;;2265308;61;1915;-85
2021/11/16 05:15:08;55413.00;0.18;96.55;0.00;0.00;0.62;;;;;12.30;1.00;;;;;;2265172;61;945;-84
2021/11/16 05:17:35;153437.00;0.51;265.73;0.00;0.00;0.62;;;;;12.30;1.00;;;;;;2262023;61;1021;-84
2021/11/16 05:20:05;58005.00;0.19;101.03;0.00;0.00;0.62;;;;;12.50;1.00;;;;;;2264498;61;1458;-84
2021/11/16 05:22:32;93626.00;0.31;162.57;0.00;0.00;0.62;;;;;12.60;1.00;;;;;;2252584;61;960;-86
2021/11/16 05:24:59;67149.00;0.22;116.83;0.00;0.00;0.62;;;;;12.50;1.00;;;;;;2249296;61;1001;-84
2021/11/16 05:27:28;54623.00;0.18;95.18;0.00;0.00;0.62;;;;;12.60;1.00;;;;;;2246109;61;1018;-84
2021/11/16 05:29:55;63905.00;0.21;111.23;0.00;0.00;0.62;;;;;12.90;1.00;;;;;;2245954;61;1449;-82
2021/11/16 05:32:22;179384.00;0.60;310.43;10817.00;0.04;19.36;;;;;12.80;1.00;;;;;;2249335;61;1018;-84
2021/11/16 05:34:48;116882664.00;389.61;64680560.00;0.00;0.00;0.62;;;;;12.60;1.00;;;;;;2246107;61;2015;-83
2021/11/16 05:37:15;96118.00;0.32;166.87;0.00;0.00;0.62;;;;;12.70;1.00;;;;;;2256956;61;998;-81
2021/11/16 05:39:42;51329.00;0.17;89.48;0.00;0.00;0.62;;;;;12.80;1.00;;;;;;2254797;61;1359;-83
2021/11/16 05:42:10;104221.00;0.35;180.86;0.00;0.00;0.62;;;;;12.80;1.00;;;;;;2261755;61;1000;-82
2021/11/16 05:44:38;131398.00;0.44;227.74;0.00;0.00;0.62;;;;;12.50;1.00;;;;;;2261825;61;952;-80
2021/11/16 05:47:07;144041.00;0.48;249.54;0.00;0.00;0.62;;;;;12.30;1.00;;;;;;2261958;61;1008;-84
2021/11/16 05:49:34;60327.00;0.20;105.04;0.00;0.00;0.62;;;;;12.30;1.00;;;;;;2267925;61;1317;-83
2021/11/16 05:52:03;30338.00;0.10;53.17;0.00;0.00;0.62;;;;;12.30;1.00;;;;;;2258500;61;1002;-86
2021/11/16 05:54:32;82721.00;0.28;143.74;0.00;0.00;0.62;;;;;12.30;1.00;;;;;;2261685;61;1912;-85
2021/11/16 05:57:00;85331.00;0.28;148.24;0.00;0.00;0.62;;;;;12.60;1.00;;;;;;2261801;61;908;-84
2021/11/16 05:59:33;120628.00;0.40;209.17;0.00;0.00;0.62;;;;;12.90;1.00;;;;;;2268544;61;1277;-83
2021/11/16 06:04:31;89885.00;0.30;156.11;0.00;0.00;0.62;;;;;12.90;1.00;;;;;;2271031;61;1358;-86
2021/11/16 06:12:00;17927.00;0.06;31.68;0.00;0.00;0.62;;;;;12.40;1.00;;;;;;2520740;40;3595;31
2021/11/16 07:53:15;2321426.00;7.74;4306.56;16132.00;0.05;28.57;;;;;11.30;1.00;;;;;;2270806;61;1943;-85
2021/11/16 07:58:13;137731.00;0.46;238.66;0.00;0.00;0.62;;;;;10.40;1.00;;;;;;2270909;61;1312;-88
2021/11/16 08:20:29;314467.00;1.05;542.79;0.00;0.00;0.62;;;;;12.20;1.00;;;;;;2518392;40;3441;31
2021/11/16 10:26:35;21327.00;0.07;37.57;0.00;0.00;0.62;;;;;10.80;1.00;;;;;;2271100;61;892;-86
2021/11/16 10:31:34;154643.00;0.52;267.81;0.00;0.00;0.62;;;;;10.60;1.00;;;;;;2271182;61;1311;-87
2021/11/16 12:12:45;204659.00;0.68;353.94;57533.00;0.19;100.21;;;;;13.70;1.00;;;;;;2271790;61;901;-90
2021/11/16 12:37:39;613965.00;2.05;1058.34;15842.00;0.05;28.07;;;;;11.80;1.00;;;;;;2271439;61;887;-89
2021/11/16 13:27:11;174435.00;0.58;301.91;0.00;0.00;0.62;;;;;12.30;1.00;;;;;;2271328;61;904;-87
2021/11/16 13:59:36;665409.00;2.22;1147.30;147118.00;0.49;254.84;;;;;12.70;1.00;;;;;;2437451;40;3741;31
2021/11/16 14:22:01;55185.00;0.18;96.15;0.00;0.00;0.62;;;;;13.40;1.00;;;;;;2270361;61;1432;-84
2021/11/16 14:24:31;66478.00;0.22;115.67;0.00;0.00;0.62;;;;;13.70;1.00;;;;;;2265070;61;1012;-81
2021/11/16 14:26:59;80120.00;0.27;139.24;0.00;0.00;0.62;;;;;13.80;1.00;;;;;;2265155;61;1008;-83
2021/11/16 14:29:27;185652.00;0.62;321.22;0.00;0.00;0.62;;;;;13.70;1.00;;;;;;2260371;61;1300;-85
2021/11/16 14:31:56;124412.00;0.41;215.69;0.00;0.00;0.62;;;;;13.80;1.00;;;;;;2257055;61;1005;-83
2021/11/16 14:34:26;98390.00;0.33;170.79;0.00;0.00;0.62;;;;;13.60;1.00;;;;;;2260580;61;1923;-85
2021/11/16 14:36:58;49764.00;0.17;86.78;0.00;0.00;0.62;;;;;13.60;1.00;;;;;;2253907;61;946;-84
2021/11/16 14:42:04;29460.00;0.10;51.65;0.00;0.00;0.62;;;;;13.30;1.00;;;;;;2270340;61;1414;-83
2021/11/16 14:47:02;75152.00;0.25;130.66;0.00;0.00;0.62;;;;;13.60;1.00;;;;;;2270396;61;1389;-85
2021/11/16 14:49:40;138778.00;0.46;240.46;0.00;0.00;0.62;;;;;13.30;1.00;;;;;;2265053;61;1387;-83
2021/11/16 14:52:13;199021.00;0.66;344.24;12040.00;0.04;21.48;;;;;13.50;1.00;;;;;;2264165;61;937;-84
2021/11/16 14:54:40;85395.00;0.28;148.36;0.00;0.00;0.62;;;;;13.70;1.00;;;;;;2264014;61;1959;-86
2021/11/16 14:57:09;105477.00;0.35;183.02;0.00;0.00;0.62;;;;;13.70;1.00;;;;;;2263646;61;985;-85
2021/11/16 14:59:36;15913.00;0.05;28.19;0.00;0.00;0.62;;;;;13.60;1.00;;;;;;2257718;61;1335;-85
2021/11/16 15:02:06;150450.00;0.50;260.58;0.00;0.00;0.62;;;;;13.60;1.00;;;;;;2263888;61;1005;-86
2021/11/16 15:07:04;197312.00;0.66;341.30;0.00;0.00;0.62;;;;;13.50;1.00;;;;;;2270576;61;1441;-85
2021/11/16 15:12:12;210285.00;0.70;363.63;0.00;0.00;0.62;;;;;12.70;1.00;;;;;;2270121;61;1417;-83
2021/11/16 15:14:45;22507.00;0.08;39.61;0.00;0.00;0.62;;;;;12.30;1.00;;;;;;2261682;61;2003;-84
2021/11/16 15:17:12;46728.00;0.16;81.53;0.00;0.00;0.62;;;;;12.70;1.00;;;;;;2264329;61;962;-83
2021/11/16 15:19:54;64314.00;0.21;111.93;0.00;0.00;0.62;;;;;13.00;1.00;;;;;;2264177;61;1284;-84
2021/11/16 15:22:30;69011.00;0.23;120.05;0.00;0.00;0.62;;;;;12.90;1.00;;;;;;2264067;61;1029;-84
2021/11/16 15:25:13;191184.00;0.64;330.75;41613.00;0.14;72.68;;;;;12.50;1.00;;;;;;2256186;61;916;-84
2021/11/16 15:27:52;113699.00;0.38;197.21;0.00;0.00;0.62;;;;;12.70;1.00;;;;;;2252896;61;1012;-84
2021/11/16 15:30:22;124031.00;0.41;215.04;0.00;0.00;0.62;;;;;12.30;1.00;;;;;;2249680;61;1377;-86
2021/11/16 15:35:17;138602.00;0.46;240.16;0.00;0.00;0.62;;;;;12.70;1.00;;;;;;2270586;61;1962;-85
2021/11/16 15:37:44;103399.00;0.34;179.44;0.00;0.00;0.62;;;;;12.80;1.00;;;;;;2261539;61;941;-85
2021/11/16 15:42:59;100748.00;0.34;174.86;0.00;0.00;0.62;;;;;13.40;1.00;;;;;;2270710;61;1411;-85
2021/11/16 15:45:36;72074.00;0.24;125.34;0.00;0.00;0.62;;;;;13.50;1.00;;;;;;2264881;61;1036;-83
2021/11/16 15:48:10;25105.00;0.08;44.11;0.00;0.00;0.62;;;;;13.60;1.00;;;;;;2268611;61;997;-83
2021/11/16 15:53:29;42650.00;0.14;74.47;0.00;0.00;0.62;;;;;13.70;1.00;;;;;;2266339;61;1401;-85
2021/11/16 15:58:29;265354.00;0.88;458.36;80711.00;0.27;140.27;;;;;13.40;1.00;;;;;;2265984;61;1334;-84
2021/11/16 16:00:59;140377.00;0.47;243.22;0.00;0.00;0.62;;;;;13.50;1.00;;;;;;2260099;61;1303;-83
2021/11/16 16:06:05;233650.00;0.78;403.83;0.00;0.00;0.62;;;;;13.90;1.00;;;;;;2266460;61;1429;-85
2021/11/16 16:08:44;195713.00;0.65;338.54;0.00;0.00;0.62;;;;;13.90;1.00;;;;;;2260897;61;966;-83
2021/11/16 16:11:17;88043.00;0.29;152.93;0.00;0.00;0.62;;;;;13.60;1.00;;;;;;2260582;61;997;-84
2021/11/16 16:13:48;312265.00;1.04;539.00;2830.00;0.01;5.52;;;;;13.80;1.00;;;;;;2253596;61;1005;-84
2021/11/16 17:08:48;151521.00;0.51;262.43;0.00;0.00;0.62;;;;;13.70;1.00;;;;;;2271020;61;1364;-86
2021/11/16 17:16:15;51445.00;0.17;89.69;0.00;0.00;0.62;;;;;13.20;1.00;;;;;;2271553;61;1967;-86
2021/11/16 17:55:52;40167.00;0.13;70.18;0.00;0.00;0.62;;;;;13.20;1.00;;;;;;2270905;61;1945;-87
2021/11/16 18:18:03;100094.00;0.33;173.73;0.00;0.00;0.62;;;;;13.10;1.00;;;;;;2475407;40;3562;31
2021/11/16 19:00:02;505081.00;1.68;870.57;78328.00;0.26;136.15;;;;;12.50;1.00;;;;;;2264110;61;1393;-81
2021/11/16 19:03:00;322999.00;1.08;557.45;0.00;0.00;0.62;;;;;12.20;1.00;;;;;;2271143;40;3703;-82
2021/11/16 19:05:30;284233.00;0.95;490.81;0.00;0.00;0.62;;;;;12.40;1.00;;;;;;2326537;55;3853;-83
2021/11/16 19:07:57;85478.00;0.28;148.50;0.00;0.00;0.62;;;;;12.20;1.00;;;;;;2266904;61;1370;-85
2021/11/16 19:10:25;184874.00;0.62;319.88;0.00;0.00;0.62;;;;;12.00;1.00;;;;;;2268380;61;1410;-83
2021/11/16 19:15:21;49675.00;0.17;86.62;0.00;0.00;0.62;;;;;12.60;1.00;;;;;;2270461;61;1897;-84
2021/11/16 19:20:19;115012.00;0.38;199.48;0.00;0.00;0.62;;;;;12.50;1.00;;;;;;2270301;61;1637;-81
2021/11/16 19:22:46;226020.00;0.75;390.70;0.00;0.00;0.62;;;;;12.50;1.00;;;;;;2268555;61;992;-83
2021/11/16 19:25:16;143722.00;0.48;248.99;0.00;0.00;0.62;;;;;12.70;1.00;;;;;;2268368;61;1717;-83
2021/11/16 19:27:48;181044.00;0.60;313.29;0.00;0.00;0.62;;;;;12.40;1.00;;;;;;2264851;61;982;-83
2021/11/16 19:30:17;125290.00;0.42;217.21;0.00;0.00;0.62;;;;;12.30;1.00;;;;;;2264798;61;1433;-83
2021/11/16 19:32:47;62778.00;0.21;109.28;0.00;0.00;0.62;;;;;12.40;1.00;;;;;;2268543;61;1029;-84
2021/11/16 19:35:16;288054.00;0.96;497.38;51350.00;0.17;89.52;;;;;12.30;1.00;;;;;;2268517;61;1919;-83
2021/11/16 19:37:47;111775.00;0.37;193.89;0.00;0.00;0.62;;;;;12.30;1.00;;;;;;2259561;61;1004;-83
2021/11/16 19:40:25;54971.00;0.18;95.78;0.00;0.00;0.62;;;;;12.20;1.00;;;;;;2259885;61;1462;-84
2021/11/16 19:42:53;134496.00;0.45;233.08;0.00;0.00;0.62;;;;;12.10;1.00;;;;;;2259973;61;1790;-82
2021/11/16 19:45:21;111959.00;0.37;194.21;0.00;0.00;0.62;;;;;12.50;1.00;;;;;;2248085;61;938;-85
2021/11/16 19:47:49;112303.00;0.37;194.80;0.00;0.00;0.62;;;;;12.40;1.00;;;;;;2247535;61;1203;-85
2021/11/16 19:52:45;166841.00;0.56;288.82;0.00;0.00;0.62;;;;;12.20;1.00;;;;;;2270011;61;1515;-82
2021/11/16 19:55:14;90150.00;0.30;156.57;0.00;0.00;0.62;;;;;12.80;1.00;;;;;;2268438;61;1934;-84
2021/11/16 20:00:13;137777.00;0.46;238.74;0.00;0.00;0.62;;;;;13.00;1.00;;;;;;2270054;61;1447;-83
2021/11/16 20:02:41;100168.00;0.33;173.86;0.00;0.00;0.62;;;;;12.80;1.00;;;;;;2264733;61;1037;-85
2021/11/16 20:05:12;222714.00;0.74;385.01;0.00;0.00;0.62;;;;;12.80;1.00;;;;;;2264860;61;1141;-84
2021/11/16 20:07:39;168772.00;0.56;292.15;8816.00;0.03;15.90;;;;;12.30;1.00;;;;;;2264852;61;1011;-85
2021/11/16 20:10:07;74863.00;0.25;130.16;0.00;0.00;0.62;;;;;12.00;1.00;;;;;;2391565;40;3898;31
2021/11/16 20:12:35;212144.00;0.71;366.83;11393.00;0.04;20.36;;;;;12.30;1.00;;;;;;2271145;61;1351;-84
2021/11/16 20:15:02;150790.00;0.50;261.17;0.00;0.00;0.62;;;;;12.40;1.00;;;;;;2269333;61;1905;-83
2021/11/16 20:17:29;211746.00;0.71;366.14;47939.00;0.16;83.62;;;;;12.40;1.00;;;;;;2269257;61;1722;-85
2021/11/16 20:19:56;144854.00;0.48;250.94;0.00;0.00;0.62;;;;;11.70;1.00;;;;;;2269246;61;1258;-83
2021/11/16 20:24:52;209502.00;0.70;362.28;0.00;0.00;0.62;;;;;11.70;1.00;;;;;;2266655;61;1426;-81
2021/11/16 20:27:24;100177.00;0.33;173.88;0.00;0.00;0.62;;;;;11.70;1.00;;;;;;2264916;61;1664;-84
2021/11/16 20:29:54;278412.00;0.93;480.81;0.00;0.00;0.62;;;;;11.70;1.00;;;;;;2260890;61;1425;-81
2021/11/16 20:37:20;143852.00;0.48;249.21;0.00;0.00;0.62;;;;;11.80;1.00;;;;;;2270915;61;1396;-82
2021/11/16 20:39:52;72440.00;0.24;125.98;0.00;0.00;0.62;;;;;11.70;1.00;;;;;;2269025;61;1890;-85
2021/11/16 21:06:20;251912.00;0.84;435.24;0.00;0.00;0.62;;;;;12.30;1.00;;;;;;2270982;61;1381;-85
2021/11/16 21:08:47;494360.00;1.65;852.11;4143.00;0.01;7.80;;;;;12.50;1.00;;;;;;2269049;61;1427;-84
2021/11/16 21:11:14;479740.00;1.60;826.95;0.00;0.00;0.62;;;;;12.10;1.00;;;;;;2269059;61;1363;-82
2021/11/16 21:13:42;403876.00;1.35;696.47;0.00;0.00;0.62;;;;;12.00;1.00;;;;;;2268736;61;1816;-85
2021/11/16 21:16:09;334658.00;1.12;577.49;0.00;0.00;0.62;;;;;11.90;1.00;;;;;;2264067;61;1920;-84
2021/11/16 21:18:37;426069.00;1.42;734.63;17577.00;0.06;31.07;;;;;12.30;1.00;;;;;;2252072;61;1069;-83
2021/11/16 21:21:05;290316.00;0.97;501.27;0.00;0.00;0.62;;;;;12.60;1.00;;;;;;2252467;61;1428;-82
2021/11/16 21:23:34;432889.00;1.44;746.35;0.00;0.00;0.62;;;;;12.60;1.00;;;;;;2252257;61;1059;-86
2021/11/16 21:26:01;326954.00;1.09;564.25;0.00;0.00;0.62;;;;;12.50;1.00;;;;;;2244219;61;1116;-82
2021/11/16 21:28:28;481015.00;1.60;829.14;13150.00;0.04;23.41;;;;;12.60;1.00;;;;;;2244906;61;961;-85
2021/11/16 21:30:58;367715.00;1.23;634.31;0.00;0.00;0.62;;;;;12.50;1.00;;;;;;2244652;61;1448;-85
2021/11/16 21:33:25;201015.00;0.67;347.67;0.00;0.00;0.62;;;;;12.30;1.00;;;;;;2245251;61;1575;-82
2021/11/16 21:35:52;91182.00;0.30;158.35;0.00;0.00;0.62;;;;;11.80;1.00;;;;;;2249461;61;1916;-83
2021/11/16 21:38:19;222302.00;0.74;384.30;0.00;0.00;0.62;;;;;12.10;1.00;;;;;;2244586;61;1025;-84
2021/11/16 21:40:48;244918.00;0.82;423.21;0.00;0.00;0.62;;;;;12.30;1.00;;;;;;2244757;61;1332;-84
2021/11/16 21:43:18;229093.00;0.76;395.99;0.00;0.00;0.62;;;;;12.40;1.00;;;;;;2246053;61;916;-84
2021/11/16 21:45:45;435817.00;1.45;751.39;24009.00;0.08;42.21;;;;;12.50;1.00;;;;;;2253001;61;967;-82
2021/11/16 21:48:12;227218.00;0.76;392.76;0.00;0.00;0.62;;;;;12.00;1.00;;;;;;2256214;61;1229;-84